Time;durP1;ratioP1;P1;durP2;ratioP2;P2;SDS_P1;SDS_P2;PMS_P1;PMS_P2;Temp;Humidity;BMP_temperature;BMP_pressure;BME280_temperature;BME280_humidity;BME280_pressure;Samples;Min_cycle;Max_cycle;Signal;HPM_P1;HPM_P2
2022/07/25 00:01:02;;;;;;;95.10;90.80;;;;;;;33.68;31.05;100919.53;4881896;29;20045;-65
2022/07/25 00:03:28;;;;;;;97.18;92.68;;;;;;;33.65;30.81;100917.53;4882022;29;20044;-66
2022/07/25 00:05:53;;;;;;;92.38;88.05;;;;;;;33.60;31.22;100913.91;4881654;29;20044;-65
2022/07/25 00:08:18;;;;;;;93.20;88.90;;;;;;;33.59;30.80;100914.31;4881704;29;20033;-65
2022/07/25 00:10:44;;;;;;;96.68;92.28;;;;;;;33.55;30.88;100908.72;4895871;29;20030;-64
2022/07/25 00:13:09;;;;;;;92.88;88.53;;;;;;;33.52;31.13;100903.88;4881878;29;20037;-65
2022/07/25 00:15:35;;;;;;;94.40;89.97;;;;;;;33.49;31.30;100906.66;4882002;29;20040;-65
2022/07/25 00:18:01;;;;;;;93.53;89.22;;;;;;;33.46;31.14;100893.44;4881455;29;20033;-64
2022/07/25 00:20:26;;;;;;;91.70;87.40;;;;;;;33.44;31.17;100901.44;4881992;29;20040;-65
2022/07/25 00:22:51;;;;;;;93.95;89.30;;;;;;;33.40;30.96;100896.63;4881246;29;20069;-64
2022/07/25 00:25:17;;;;;;;92.28;88.07;;;;;;;33.37;31.11;100891.03;4880613;29;20033;-65
2022/07/25 00:27:42;;;;;;;92.18;87.88;;;;;;;33.34;31.07;100883.41;4880970;29;20104;-65
2022/07/25 00:30:08;;;;;;;92.68;88.38;;;;;;;33.30;30.97;100880.59;4879992;29;20081;-65
2022/07/25 00:32:34;;;;;;;92.55;88.30;;;;;;;33.28;31.00;100871.81;4881571;29;20048;-65
2022/07/25 00:34:59;;;;;;;93.25;88.80;;;;;;;33.25;31.34;100871.81;4881334;29;20520;-65
2022/07/25 00:37:24;;;;;;;91.95;87.75;;;;;;;33.21;31.14;100871.78;4895811;29;20392;-65
2022/07/25 00:39:50;;;;;;;93.80;89.40;;;;;;;33.18;31.04;100858.56;4881024;29;20040;-65
2022/07/25 00:42:15;;;;;;;91.55;87.28;;;;;;;33.16;31.25;100863.75;4895442;29;20556;-65
2022/07/25 00:44:41;;;;;;;91.45;87.22;;;;;;;33.13;31.13;100854.16;4881224;29;20033;-65
2022/07/25 00:47:06;;;;;;;92.72;88.40;;;;;;;33.11;31.21;100855.75;4881097;29;20061;-65
2022/07/25 00:49:31;;;;;;;92.55;88.25;;;;;;;33.08;31.21;100853.75;4881005;29;20062;-65
2022/07/25 00:51:57;;;;;;;92.38;88.15;;;;;;;33.04;31.17;100842.56;4880517;29;20478;-65
2022/07/25 00:54:22;;;;;;;87.85;83.80;;;;;;;33.01;31.18;100843.28;4880889;29;20448;-65
2022/07/25 00:56:49;;;;;;;93.93;89.53;;;;;;;32.97;31.23;100840.47;4881456;29;20044;-65
2022/07/25 00:59:15;;;;;;;90.90;86.70;;;;;;;32.94;31.21;100846.88;4879349;29;20075;-65
2022/07/25 01:01:41;;;;;;;93.22;88.72;;;;;;;32.91;31.21;100842.06;4880676;29;20037;-65
2022/07/25 01:04:07;;;;;;;90.03;85.65;;;;;;;32.88;31.35;100847.63;4880653;29;20503;-65
2022/07/25 01:06:33;;;;;;;89.15;84.97;;;;;;;32.85;31.23;100834.44;4881163;29;20029;-66
2022/07/25 01:09:00;;;;;;;90.88;86.68;;;;;;;32.82;31.30;100833.22;4880505;29;20085;-66
2022/07/25 01:11:26;;;;;;;92.07;87.80;;;;;;;32.80;31.13;100832.03;4880475;29;20037;-65
2022/07/25 01:13:51;;;;;;;89.28;84.93;;;;;;;32.77;30.88;100836.41;4880471;29;20048;-65
2022/07/25 01:16:17;;;;;;;86.97;82.93;;;;;;;32.74;31.38;100837.19;4880441;29;20048;-66
2022/07/25 01:18:42;;;;;;;90.32;86.03;;;;;;;32.72;31.32;100828.38;4880861;29;20033;-65
2022/07/25 01:21:08;;;;;;;89.45;85.30;;;;;;;32.67;31.13;100823.97;4880628;29;20467;-66
2022/07/25 01:23:33;;;;;;;91.70;87.35;;;;;;;32.64;31.12;100816.38;4880370;29;20060;-65
2022/07/25 01:25:59;;;;;;;88.18;84.07;;;;;;;32.62;31.25;100813.16;4880239;29;20108;-66
2022/07/25 01:28:24;;;;;;;87.53;83.40;;;;;;;32.60;31.14;100803.56;4880277;29;20033;-66
2022/07/25 01:30:49;;;;;;;87.30;83.13;;;;;;;32.57;31.20;100813.53;4880161;29;20358;-66
2022/07/25 01:33:16;;;;;;;88.20;84.10;;;;;;;32.53;31.50;100804.31;4880414;29;20089;-65
2022/07/25 01:35:42;;;;;;;87.95;83.72;;;;;;;32.50;31.22;100800.31;4879964;29;20032;-66
2022/07/25 01:38:08;;;;;;;86.75;82.75;;;;;;;32.47;30.89;100794.69;4880122;29;20033;-65
2022/07/25 01:40:33;;;;;;;87.45;83.25;;;;;;;32.45;31.36;100797.84;4879839;29;20037;-65
2022/07/25 01:42:58;;;;;;;89.85;85.65;;;;;;;32.41;31.24;100797.06;4880022;29;20492;-65
2022/07/25 01:45:24;;;;;;;86.85;82.80;;;;;;;32.40;31.28;100795.44;4878833;29;20119;-65
2022/07/25 01:47:49;;;;;;;86.40;82.20;;;;;;;32.36;31.20;100793.81;4879732;29;20056;-65
2022/07/25 01:50:15;;;;;;;87.00;82.97;;;;;;;32.33;31.22;100779.44;4879918;29;20064;-65
2022/07/25 01:52:40;;;;;;;86.18;82.18;;;;;;;32.30;31.36;100783.00;4879917;29;20033;-67
2022/07/25 01:55:06;;;;;;;86.80;82.70;;;;;;;32.28;31.31;100781.78;4879857;29;20048;-65
2022/07/25 01:57:32;;;;;;;90.38;86.10;;;;;;;32.24;31.27;100776.19;4880130;29;20084;-66
2022/07/25 01:59:58;;;;;;;87.18;83.05;;;;;;;32.22;31.17;100784.16;4879675;29;20052;-65
2022/07/25 02:02:23;;;;;;;85.97;81.88;;;;;;;32.19;31.38;100781.34;4879356;29;20065;-65
2022/07/25 02:04:49;;;;;;;83.75;79.75;;;;;;;32.16;31.35;100788.50;4879779;29;20103;-65
2022/07/25 02:07:14;;;;;;;86.30;82.05;;;;;;;32.14;31.40;100790.09;4879682;29;20029;-65
2022/07/25 02:09:40;;;;;;;82.70;78.78;;;;;;;32.11;31.34;100792.47;4879941;29;20044;-65
2022/07/25 02:12:06;;;;;;;84.18;80.28;;;;;;;32.07;31.43;100788.84;4893773;29;20056;-65
2022/07/25 02:14:32;;;;;;;84.00;80.10;;;;;;;32.05;31.30;100796.00;4880062;29;20048;-65
2022/07/25 02:16:57;;;;;;;82.63;78.53;;;;;;;32.03;31.38;100784.41;4879845;29;20085;-65
2022/07/25 02:19:23;;;;;;;84.40;80.40;;;;;;;32.00;31.31;100776.81;4879577;29;20029;-65
2022/07/25 02:21:48;;;;;;;85.63;81.63;;;;;;;31.96;31.39;100781.59;4879234;29;20160;-65
2022/07/25 02:24:14;;;;;;;83.70;79.53;;;;;;;31.94;31.35;100779.19;4879418;29;20052;-65
2022/07/25 02:26:39;;;;;;;81.78;77.88;;;;;;;31.91;31.66;100777.13;4879577;29;20112;-65
2022/07/25 02:29:05;;;;;;;83.45;79.55;;;;;;;31.89;31.42;100768.34;4879663;29;20113;-65
2022/07/25 02:31:30;;;;;;;86.28;82.15;;;;;;;31.86;31.36;100766.31;4879371;29;20456;-65
2022/07/25 02:33:56;;;;;;;84.63;80.60;;;;;;;31.84;31.55;100758.31;4879334;29;20037;-65
2022/07/25 02:36:21;;;;;;;82.45;78.55;;;;;;;31.82;31.04;100759.91;4879508;29;20048;-65
2022/07/25 02:38:47;;;;;;;83.82;79.75;;;;;;;31.78;31.31;100759.09;4879353;29;20033;-67
2022/07/25 02:41:12;;;;;;;84.78;80.68;;;;;;;31.77;31.31;100754.69;4879575;29;20124;-65
2022/07/25 02:43:37;;;;;;;83.00;79.20;;;;;;;31.74;31.30;100761.03;4879649;29;20075;-65
2022/07/25 02:46:03;;;;;;;82.55;78.72;;;;;;;31.71;31.42;100759.03;4880043;29;20128;-65
2022/07/25 02:48:28;;;;;;;80.65;76.82;;;;;;;31.68;31.34;100750.22;4882891;29;20409;-65
2022/07/25 02:50:54;;;;;;;81.95;78.05;;;;;;;31.66;31.11;100758.19;4882832;29;20469;-65
2022/07/25 02:53:19;;;;;;;81.35;77.45;;;;;;;31.63;31.44;100749.78;4882987;29;20033;-65
2022/07/25 02:55:44;;;;;;;86.25;82.15;;;;;;;31.60;31.47;100748.59;4882838;29;20100;-65
2022/07/25 02:58:10;;;;;;;81.90;78.10;;;;;;;31.58;31.40;100734.19;4882949;29;20030;-65
2022/07/25 03:00:36;;;;;;;80.85;77.05;;;;;;;31.55;31.46;100734.97;4883033;29;20041;-64
2022/07/25 03:03:01;;;;;;;81.90;78.07;;;;;;;31.53;31.61;100731.78;4882678;29;20067;-64
2022/07/25 03:05:26;;;;;;;79.05;75.15;;;;;;;31.51;31.53;100727.75;4897289;29;20426;-64
2022/07/25 03:07:52;;;;;;;78.43;74.72;;;;;;;31.48;31.58;100732.13;4883295;29;20037;-65
2022/07/25 03:10:17;;;;;;;76.65;73.05;;;;;;;31.46;31.71;100723.31;4881397;29;20116;-66
2022/07/25 03:12:43;;;;;;;77.95;74.15;;;;;;;31.43;31.45;100724.09;4882610;29;20029;-65
2022/07/25 03:15:10;;;;;;;76.63;72.93;;;;;;;31.40;31.39;100728.47;4882188;29;20036;-65
2022/07/25 03:17:35;;;;;;;76.50;72.88;;;;;;;31.37;31.58;100718.03;4882510;29;20067;-64
2022/07/25 03:20:01;;;;;;;79.97;76.10;;;;;;;31.35;31.54;100723.22;4882530;29;20470;-65
2022/07/25 03:22:26;;;;;;;78.18;74.47;;;;;;;31.32;31.66;100715.59;4882864;29;20044;-65
2022/07/25 03:24:52;;;;;;;81.50;77.65;;;;;;;31.30;31.55;100715.19;4882541;29;20478;-65
2022/07/25 03:27:18;;;;;;;75.68;71.97;;;;;;;31.27;31.56;100713.97;4883064;29;20048;-65
2022/07/25 03:29:44;;;;;;;76.85;73.05;;;;;;;31.25;31.80;100719.13;4882383;29;20044;-64
2022/07/25 03:32:09;;;;;;;84.10;80.20;;;;;;;31.24;31.91;100719.50;4880979;29;20415;-65
2022/07/25 03:34:35;;;;;;;80.72;76.93;;;;;;;31.20;31.66;100707.53;4882506;29;20073;-65
2022/07/25 03:37:00;;;;;;;76.97;73.25;;;;;;;31.18;31.59;100709.91;4882820;29;20521;-65
2022/07/25 03:39:27;;;;;;;78.93;74.97;;;;;;;31.16;31.60;100703.91;4882254;29;20496;-65
2022/07/25 03:41:53;;;;;;;81.18;77.20;;;;;;;31.12;31.68;100708.63;4897160;29;20374;-67
2022/07/25 03:44:19;;;;;;;78.10;74.30;;;;;;;31.10;31.77;100705.41;4882065;29;20044;-65
2022/07/25 03:46:45;;;;;;;78.13;74.32;;;;;;;31.07;31.59;100704.19;4881778;29;20057;-65
2022/07/25 03:49:10;;;;;;;77.10;73.40;;;;;;;31.05;31.60;100703.81;4882443;29;20475;-65
2022/07/25 03:51:36;;;;;;;81.53;77.55;;;;;;;31.03;31.82;100704.16;4881828;29;20105;-65
2022/07/25 03:54:01;;;;;;;74.85;71.18;;;;;;;31.01;31.70;100697.38;4882148;29;20040;-63
2022/07/25 03:56:32;;;;;;;76.65;72.95;;;;;;;30.97;31.80;100694.56;4881946;29;20033;-64
2022/07/25 03:58:58;;;;;;;79.57;75.75;;;;;;;30.95;31.88;100691.34;4881698;29;20520;-64
2022/07/25 04:01:23;;;;;;;77.18;73.50;;;;;;;30.93;31.68;100709.66;4881705;29;20067;-65
2022/07/25 04:03:49;;;;;;;76.10;72.40;;;;;;;30.91;31.69;100698.06;4881636;29;20085;-64
2022/07/25 04:06:14;;;;;;;75.90;71.90;;;;;;;30.89;31.73;100692.06;4881657;29;20040;-65
2022/07/25 04:08:40;;;;;;;75.22;71.47;;;;;;;30.87;31.59;100706.41;4882034;29;20043;-65
2022/07/25 04:11:05;;;;;;;76.22;72.50;;;;;;;30.82;32.00;100704.75;4896399;29;20469;-65
2022/07/25 04:13:31;;;;;;;75.35;71.68;;;;;;;30.81;31.78;100691.16;4881502;29;20133;-65
2022/07/25 04:15:56;;;;;;;75.13;71.60;;;;;;;30.79;31.67;100705.50;4881792;29;20088;-67
2022/07/25 04:18:21;;;;;;;75.88;72.28;;;;;;;30.77;31.69;100707.88;4881501;29;20041;-66
2022/07/25 04:20:47;;;;;;;81.18;77.35;;;;;;;30.76;31.90;100713.81;4881421;29;20033;-66
2022/07/25 04:23:12;;;;;;;77.65;73.95;;;;;;;30.73;31.70;100712.59;4881597;29;20055;-66
2022/07/25 04:25:38;;;;;;;79.53;75.70;;;;;;;30.71;31.96;100708.56;4895883;29;20045;-66
2022/07/25 04:28:03;;;;;;;77.15;73.28;;;;;;;30.68;31.47;100714.91;4881113;29;20040;-66
2022/07/25 04:30:29;;;;;;;72.65;69.10;;;;;;;30.66;31.74;100709.72;4895536;29;20068;-66
2022/07/25 04:32:54;;;;;;;78.65;74.95;;;;;;;30.64;31.65;100714.88;4880251;29;20037;-66
2022/07/25 04:35:20;;;;;;;73.75;70.15;;;;;;;30.62;31.62;100708.88;4881010;29;20037;-66
2022/07/25 04:37:45;;;;;;;77.28;73.28;;;;;;;30.59;31.86;100713.25;4881099;29;20033;-66
2022/07/25 04:40:11;;;;;;;75.82;72.13;;;;;;;30.57;31.85;100706.44;4881275;29;20039;-65
2022/07/25 04:42:36;;;;;;;75.05;71.35;;;;;;;30.54;31.69;100702.44;4881404;29;20045;-66
2022/07/25 04:45:03;;;;;;;77.53;73.72;;;;;;;30.54;32.02;100713.59;4881096;29;20322;-66
2022/07/25 04:47:29;;;;;;;72.88;69.38;;;;;;;30.51;31.92;100705.94;4880494;29;20056;-66
2022/07/25 04:49:54;;;;;;;75.15;71.55;;;;;;;30.49;32.16;100711.13;4880734;29;20044;-66
2022/07/25 04:52:20;;;;;;;73.20;69.60;;;;;;;30.48;31.79;100711.50;4880991;29;20037;-65
2022/07/25 04:54:45;;;;;;;75.43;71.72;;;;;;;30.45;31.70;100717.84;4895030;29;20537;-66
2022/07/25 04:57:10;;;;;;;75.15;71.53;;;;;;;30.43;31.94;100714.63;4880306;29;20478;-67
2022/07/25 04:59:36;;;;;;;74.90;71.20;;;;;;;30.41;32.01;100713.00;4880578;29;20128;-66
2022/07/25 05:02:01;;;;;;;72.95;69.35;;;;;;;30.40;31.84;100711.41;4880729;29;20493;-65
2022/07/25 05:04:27;;;;;;;74.82;71.13;;;;;;;30.37;32.01;100706.59;4880414;29;20029;-66
2022/07/25 05:06:53;;;;;;;74.15;70.60;;;;;;;30.35;31.98;100703.38;4880559;29;20364;-67
2022/07/25 05:09:18;;;;;;;72.90;69.15;;;;;;;30.33;31.78;100700.16;4880003;29;20472;-66
2022/07/25 05:11:43;;;;;;;75.15;71.55;;;;;;;30.32;32.10;100703.34;4880088;29;20072;-67
2022/07/25 05:14:09;;;;;;;75.07;71.40;;;;;;;30.29;31.99;100696.53;4880467;29;20041;-65
2022/07/25 05:16:34;;;;;;;76.00;72.20;;;;;;;30.28;32.27;100697.72;4879967;29;20044;-67
2022/07/25 05:18:59;;;;;;;70.10;66.75;;;;;;;30.26;32.11;100702.84;4880006;29;20061;-68
2022/07/25 05:21:25;;;;;;;75.68;71.68;;;;;;;30.24;32.35;100708.03;4879949;29;20037;-66
2022/07/25 05:23:50;;;;;;;72.13;68.50;;;;;;;30.22;31.91;100710.34;4880786;29;20449;-65
2022/07/25 05:26:15;;;;;;;75.35;71.53;;;;;;;30.19;32.17;100705.53;4879806;29;20409;-65
2022/07/25 05:28:41;;;;;;;71.90;68.40;;;;;;;30.18;32.33;100709.50;4894353;29;20131;-65
2022/07/25 05:31:06;;;;;;;74.05;70.35;;;;;;;30.15;32.50;100716.63;4879582;29;20080;-65
2022/07/25 05:33:33;;;;;;;77.55;73.40;;;;;;;30.13;32.48;100716.19;4880010;29;20533;-65
2022/07/25 05:36:00;;;;;;;71.88;67.68;;;;;;;30.12;32.45;100711.81;4879949;29;20074;-65
2022/07/25 05:38:25;;;;;;;77.65;73.85;;;;;;;30.11;32.28;100726.09;4879770;29;20123;-65
2022/07/25 05:40:51;;;;;;;71.63;67.97;;;;;;;30.10;32.23;100728.09;4880327;29;20069;-65
2022/07/25 05:43:17;;;;;;;74.43;70.85;;;;;;;30.07;32.42;100726.06;4878474;29;20060;-65
2022/07/25 05:45:43;;;;;;;75.68;71.97;;;;;;;30.05;32.32;100739.56;4879471;29;20044;-65
2022/07/25 05:48:08;;;;;;;72.55;68.95;;;;;;;30.04;32.43;100729.59;4879269;29;20061;-65
2022/07/25 05:50:36;;;;;;;71.68;68.18;;;;;;;30.02;32.37;100739.50;4879374;29;20142;-65
2022/07/25 05:53:01;;;;;;;71.40;67.72;;;;;;;30.01;32.13;100738.69;4879643;29;20458;-66
2022/07/25 05:55:26;;;;;;;69.43;66.05;;;;;;;29.98;32.44;100740.25;4877916;29;20041;-65
2022/07/25 05:57:52;;;;;;;72.93;69.40;;;;;;;29.97;32.38;100737.84;4879300;29;20047;-65
2022/07/25 06:00:17;;;;;;;74.93;71.30;;;;;;;29.96;32.52;100736.22;4879572;29;20395;-62
2022/07/25 06:02:43;;;;;;;71.78;68.28;;;;;;;29.95;32.40;100740.19;4879281;29;20033;-65
2022/07/25 06:05:09;;;;;;;73.15;69.65;;;;;;;29.94;32.72;100735.81;4879265;29;20037;-65
2022/07/25 06:07:34;;;;;;;70.53;67.13;;;;;;;29.92;32.80;100738.19;4879796;29;20124;-64
2022/07/25 06:09:59;;;;;;;73.28;69.70;;;;;;;29.90;32.38;100744.09;4893854;29;20354;-65
2022/07/25 06:12:25;;;;;;;67.68;64.38;;;;;;;29.89;32.61;100738.94;4877761;29;20037;-65
2022/07/25 06:14:50;;;;;;;70.00;66.60;;;;;;;29.88;32.55;100740.09;4879394;29;20081;-66
2022/07/25 06:17:16;;;;;;;74.85;71.25;;;;;;;29.88;32.49;100740.09;4878945;29;20044;-65
2022/07/25 06:19:41;;;;;;;70.28;66.88;;;;;;;29.86;32.51;100742.44;4879558;29;20112;-65
2022/07/25 06:22:08;;;;;;;68.97;65.68;;;;;;;29.85;32.45;100740.84;4878720;29;20113;-65
2022/07/25 06:24:34;;;;;;;71.15;67.75;;;;;;;29.83;32.93;100737.63;4882923;29;20508;-65
2022/07/25 06:26:59;;;;;;;75.22;71.65;;;;;;;29.83;32.62;100743.19;4882831;29;20033;-66
2022/07/25 06:29:25;;;;;;;69.53;66.13;;;;;;;29.82;32.61;100749.94;4883141;29;20036;-65
2022/07/25 06:31:50;;;;;;;70.05;66.65;;;;;;;29.82;32.79;100744.38;4882554;29;20045;-65
2022/07/25 06:34:15;;;;;;;73.35;69.82;;;;;;;29.80;32.63;100741.97;4882093;29;20037;-65
2022/07/25 06:36:41;;;;;;;66.88;63.58;;;;;;;29.80;32.71;100741.16;4882372;29;20493;-65
2022/07/25 06:39:06;;;;;;;68.00;64.60;;;;;;;29.80;32.97;100757.88;4881296;29;20041;-65
2022/07/25 06:41:32;;;;;;;73.05;69.55;;;;;;;29.80;32.73;100752.31;4882580;29;20093;-64
2022/07/25 06:43:57;;;;;;;67.15;63.95;;;;;;;29.79;32.99;100745.09;4882526;29;20061;-64
2022/07/25 06:46:23;;;;;;;70.95;67.57;;;;;;;29.79;32.83;100753.47;4882491;29;20444;-64
2022/07/25 06:48:48;;;;;;;68.25;64.95;;;;;;;29.77;32.86;100751.88;4882458;29;20128;-64
2022/07/25 06:51:13;;;;;;;72.28;68.78;;;;;;;29.76;32.83;100753.06;4882400;29;20045;-64
2022/07/25 06:53:39;;;;;;;67.25;64.05;;;;;;;29.76;32.91;100750.28;4882909;29;20121;-64
2022/07/25 06:56:05;;;;;;;66.22;63.05;;;;;;;29.75;32.88;100750.63;4882108;29;20029;-62
2022/07/25 06:58:30;;;;;;;65.70;62.60;;;;;;;29.75;33.03;100753.41;4882342;29;20040;-64
2022/07/25 07:00:55;;;;;;;70.93;67.53;;;;;;;29.74;33.29;100757.38;4881303;29;20485;-65
2022/07/25 07:03:21;;;;;;;67.00;63.80;;;;;;;29.73;33.02;100756.56;4882460;29;20099;-65
2022/07/25 07:05:46;;;;;;;70.20;66.75;;;;;;;29.72;33.14;100752.19;4882105;29;20047;-66
2022/07/25 07:08:11;;;;;;;74.45;70.82;;;;;;;29.73;33.08;100752.97;4882422;29;20442;-66
2022/07/25 07:10:39;;;;;;;69.93;66.55;;;;;;;29.72;33.08;100749.41;4896322;29;20048;-65
2022/07/25 07:13:09;;;;;;;67.10;63.53;;;;;;;29.70;33.16;100748.97;4881977;29;20036;-66
2022/07/25 07:15:36;;;;;;;66.07;62.55;;;;;;;29.71;33.23;100747.81;4882240;29;20349;-65
2022/07/25 07:18:02;;;;;;;70.95;67.57;;;;;;;29.70;33.29;100745.38;4882052;29;20051;-66
2022/07/25 07:20:28;;;;;;;68.10;64.78;;;;;;;29.71;33.45;100744.19;4881980;29;20427;-65
2022/07/25 07:22:54;;;;;;;68.22;64.88;;;;;;;29.71;33.53;100749.75;4881767;29;20041;-66
2022/07/25 07:25:20;;;;;;;72.03;68.63;;;;;;;29.69;33.36;100747.38;4881936;29;20035;-65
2022/07/25 07:27:46;;;;;;;67.18;63.78;;;;;;;29.68;33.44;100745.75;4882005;29;20450;-65
2022/07/25 07:30:15;;;;;;;67.40;64.28;;;;;;;29.69;33.42;100752.13;4882070;29;20032;-66
2022/07/25 07:32:41;;;;;;;68.13;64.80;;;;;;;29.68;33.65;100750.50;4881249;29;20032;-65
2022/07/25 07:35:07;;;;;;;73.20;69.35;;;;;;;29.67;33.27;100744.16;4881489;29;20037;-65
2022/07/25 07:37:32;;;;;;;65.93;62.53;;;;;;;29.66;33.90;100750.91;4881444;29;20025;-65
2022/07/25 07:39:58;;;;;;;68.50;65.20;;;;;;;29.66;33.61;100753.69;4881416;29;20056;-65
2022/07/25 07:42:23;;;;;;;67.03;63.65;;;;;;;29.66;33.85;100748.13;4881149;29;20473;-65
2022/07/25 07:44:49;;;;;;;66.68;63.58;;;;;;;29.65;33.55;100754.84;4881646;29;20378;-65
2022/07/25 07:47:14;;;;;;;66.82;63.70;;;;;;;29.66;33.44;100762.03;4881381;29;20450;-66
2022/07/25 07:49:39;;;;;;;67.28;63.78;;;;;;;29.67;33.70;100760.84;4881688;29;20033;-65
2022/07/25 07:52:05;;;;;;;73.50;69.95;;;;;;;29.68;33.56;100764.44;4881296;29;20037;-65
2022/07/25 07:57:14;;;;;;;67.13;63.53;;;;;;;29.67;34.01;100758.06;4881133;29;20068;-66
2022/07/25 07:59:39;;;;;;;67.60;64.25;;;;;;;29.67;33.96;100751.69;4895468;29;20044;-64
2022/07/25 08:02:05;;;;;;;64.43;61.22;;;;;;;29.67;33.73;100757.28;4879821;29;20029;-65
2022/07/25 08:04:30;;;;;;;67.85;64.65;;;;;;;29.68;34.13;100762.44;4881346;29;20123;-65
2022/07/25 08:06:56;;;;;;;68.43;64.82;;;;;;;29.70;33.84;100765.66;4881391;29;20061;-66
2022/07/25 08:09:24;;;;;;;68.80;65.35;;;;;;;29.71;33.83;100764.50;4880680;29;20057;-65
2022/07/25 08:11:49;;;;;;;;;;;;;;;29.80;33.82;100767.03;4880982;29;20418;-66
2022/07/25 08:14:15;;;;;;;63.47;60.58;;;;;;;29.74;33.83;100760.97;4880847;29;19998;-66
2022/07/25 08:16:40;;;;;;;65.22;62.17;;;;;;;29.72;33.89;100768.88;4880632;29;20044;-65
2022/07/25 08:19:06;;;;;;;66.93;63.83;;;;;;;29.72;34.06;100768.88;4880877;29;20116;-65
2022/07/25 08:21:31;;;;;;;68.80;65.60;;;;;;;29.73;34.05;100764.91;4881494;29;20037;-66
2022/07/25 08:23:56;;;;;;;66.10;62.90;;;;;;;29.75;34.50;100759.78;4880609;29;20040;-65
2022/07/25 08:26:22;;;;;;;69.18;65.55;;;;;;;29.76;33.96;100769.75;4880529;29;20124;-65
2022/07/25 08:28:47;;;;;;;63.30;60.33;;;;;;;29.79;34.17;100762.63;4880844;29;20071;-65
2022/07/25 08:31:13;;;;;;;66.05;62.78;;;;;;;29.80;34.29;100766.22;4880643;29;20350;-65
2022/07/25 08:33:38;;;;;;;65.25;62.10;;;;;;;29.80;34.21;100766.22;4880408;29;20049;-65
2022/07/25 08:36:03;;;;;;;65.20;62.05;;;;;;;29.83;34.13;100762.69;4895179;29;20033;-67
2022/07/25 08:38:29;;;;;;;68.13;64.95;;;;;;;29.84;34.42;100764.31;4880904;29;20029;-65
2022/07/25 08:40:55;;;;;;;67.32;64.05;;;;;;;29.84;34.38;100767.09;4895096;29;20037;-65
2022/07/25 08:43:21;;;;;;;71.35;68.03;;;;;;;29.86;34.12;100767.50;4880430;29;20029;-66
2022/07/25 08:45:49;;;;;;;67.85;64.65;;;;;;;29.88;34.32;100776.28;4879250;29;20464;-65
2022/07/25 08:48:20;;;;;;;66.85;62.70;;;;;;;29.91;34.22;100778.31;4880156;29;20049;-67
2022/07/25 08:50:47;;;;;;;66.45;63.25;;;;;;;29.93;34.16;100778.75;4880617;29;20032;-65
2022/07/25 08:53:14;;;;;;;69.47;66.20;;;;;;;29.94;34.47;100775.59;4880501;29;20064;-65
2022/07/25 08:55:42;;;;;;;65.20;62.10;;;;;;;29.97;34.47;100771.28;4880063;29;20032;-65
2022/07/25 08:58:09;;;;;;;69.78;66.47;;;;;;;29.99;34.92;100777.28;4880165;29;20137;-65
2022/07/25 09:00:35;;;;;;;67.20;64.00;;;;;;;30.01;34.56;100774.09;4880108;29;20252;-65
2022/07/25 09:03:02;;;;;;;70.35;67.03;;;;;;;30.01;34.38;100791.59;4880284;29;20128;-65
2022/07/25 09:05:30;;;;;;;68.32;64.90;;;;;;;30.04;34.27;100787.25;4880960;29;20047;-66
2022/07/25 09:07:56;;;;;;;;;;;;;;;30.14;34.46;100793.03;4880051;29;20029;-65
2022/07/25 09:10:24;;;;;;;70.50;67.20;;;;;;;30.10;34.41;100780.22;4879953;29;19915;-65
2022/07/25 09:12:51;;;;;;;68.78;65.57;;;;;;;30.10;34.54;100780.22;4879643;29;20052;-66
2022/07/25 09:15:26;;;;;;;66.80;63.70;;;;;;;30.11;34.78;100784.59;4880004;29;20029;-65
2022/07/25 09:17:52;;;;;;;70.03;66.72;;;;;;;30.12;34.86;100787.00;4880050;29;20029;-66
2022/07/25 09:20:18;;;;;;;72.93;69.55;;;;;;;30.14;35.16;100790.25;4879903;29;20037;-64
2022/07/25 09:22:44;;;;;;;69.47;66.18;;;;;;;30.16;34.98;100790.66;4879766;29;20085;-65
2022/07/25 09:25:24;;;;;;;72.82;69.50;;;;;;;30.19;35.16;100791.91;4879626;29;20475;-66
2022/07/25 09:27:50;;;;;;;69.80;66.63;;;;;;;30.23;35.28;100789.16;4880416;29;20025;-65
2022/07/25 09:30:18;;;;;;;68.27;65.13;;;;;;;30.26;35.24;100788.44;4879739;29;20045;-65
2022/07/25 09:32:43;;;;;;;69.20;65.80;;;;;;;30.29;35.10;100782.09;4879410;29;20029;-66
2022/07/25 09:35:09;;;;;;;70.68;67.25;;;;;;;30.33;35.26;100794.09;4879532;29;20434;-64
2022/07/25 09:37:34;;;;;;;72.07;68.72;;;;;;;30.36;35.24;100793.34;4878314;29;20037;-64
2022/07/25 09:40:00;;;;;;;71.95;68.60;;;;;;;30.39;35.30;100810.13;4879404;29;20111;-65
2022/07/25 09:42:27;;;;;;;73.30;69.82;;;;;;;30.43;35.07;100804.59;4879568;29;20033;-66
2022/07/25 09:45:06;;;;;;;73.38;69.97;;;;;;;30.48;35.19;100814.63;4879477;29;20482;-65
2022/07/25 09:47:34;;;;;;;70.82;67.53;;;;;;;30.51;35.37;100809.09;4879098;29;20509;-64
2022/07/25 09:50:00;;;;;;;;;;;;;;;30.65;34.77;100821.63;4879753;29;20093;-65
2022/07/25 09:52:25;;;;;;;69.55;65.97;;;;;;;30.62;34.99;100826.78;4879276;29;19923;-65
2022/07/25 09:54:51;;;;;;;70.07;66.65;;;;;;;30.65;34.96;100827.22;4879545;29;20521;-65
2022/07/25 09:57:16;;;;;;;70.82;67.43;;;;;;;30.69;35.04;100828.84;4879335;29;20044;-67
2022/07/25 09:59:43;;;;;;;73.30;69.72;;;;;;;30.75;34.92;100837.69;4879714;29;20446;-64
2022/07/25 10:02:30;;;;;;;73.18;69.68;;;;;;;30.80;34.93;100829.00;4879288;29;20036;-64
2022/07/25 10:05:06;;;;;;;69.60;66.40;;;;;;;30.89;34.87;100831.50;4879389;29;20036;-65
2022/07/25 10:07:36;;;;;;;74.85;71.32;;;;;;;30.93;34.93;100826.78;4878841;29;20032;-65
2022/07/25 10:10:02;;;;;;;74.13;70.75;;;;;;;30.98;35.07;100830.03;4879623;29;20129;-65
2022/07/25 10:12:28;;;;;;;74.63;71.22;;;;;;;31.04;34.82;100831.31;4879304;29;20373;-67
2022/07/25 10:15:11;;;;;;;73.22;69.60;;;;;;;31.10;34.99;100833.75;4879207;29;20032;-65
2022/07/25 10:17:38;;;;;;;72.75;69.30;;;;;;;31.15;34.93;100828.66;4879201;29;20369;-66
2022/07/25 10:20:05;;;;;;;71.57;68.28;;;;;;;31.18;34.94;100824.31;4878307;29;20080;-65
2022/07/25 10:22:43;;;;;;;77.57;73.97;;;;;;;31.25;35.18;100829.97;4879351;29;20052;-67
2022/07/25 10:25:19;;;;;;;77.22;73.63;;;;;;;31.31;34.96;100828.41;4877539;29;20056;-65
2022/07/25 10:27:51;;;;;;;76.97;73.47;;;;;;;31.36;34.81;100836.44;4879030;29;20029;-65
2022/07/25 10:30:26;;;;;;;73.38;70.03;;;;;;;31.41;34.77;100832.53;4893038;29;20036;-65
2022/07/25 10:32:57;;;;;;;75.95;72.18;;;;;;;31.46;34.86;100852.53;4878850;29;20025;-66
2022/07/25 10:35:24;;;;;;;75.50;71.90;;;;;;;31.52;34.76;100861.34;4879094;29;20029;-66
2022/07/25 10:37:50;;;;;;;82.67;78.87;;;;;;;31.60;34.56;100865.03;4878826;29;20037;-66
2022/07/25 10:40:33;;;;;;;79.82;76.13;;;;;;;31.62;34.76;100859.88;4894034;29;20473;-65
2022/07/25 10:43:06;;;;;;;78.15;74.32;;;;;;;31.68;34.62;100861.13;4879408;29;20068;-68
2022/07/25 10:45:53;;;;;;;78.35;74.70;;;;;;;31.73;34.63;100869.16;4878795;29;20185;-66
2022/07/25 10:48:27;;;;;;;80.13;76.25;;;;;;;31.78;34.38;100868.81;4878716;29;20049;-66
2022/07/25 10:51:00;;;;;;;82.75;78.63;;;;;;;31.82;34.48;100864.03;4878854;29;20096;-66
2022/07/25 10:53:45;;;;;;;82.75;78.78;;;;;;;31.86;34.33;100872.47;4892892;29;20383;-65
2022/07/25 10:56:20;;;;;;;79.50;75.70;;;;;;;31.89;34.32;100866.91;4878923;29;20144;-65
2022/07/25 10:58:48;;;;;;;82.60;78.55;;;;;;;31.92;34.11;100859.75;4878987;29;20035;-65
2022/07/25 11:01:18;;;;;;;;;;;;;;;32.07;34.14;100864.28;4879162;29;20068;-65
2022/07/25 11:03:43;;;;;;;82.60;78.80;;;;;;;32.04;34.07;100851.09;4892789;29;19918;-66
2022/07/25 11:06:11;;;;;;;80.95;76.40;;;;;;;32.05;34.17;100851.88;4878414;29;20041;-65
2022/07/25 11:08:37;;;;;;;82.15;78.03;;;;;;;32.09;34.10;100863.91;4894239;29;20474;-65